Time;durP1;ratioP1;P1;durP2;ratioP2;P2;SDS_P1;SDS_P2;PMS_P1;PMS_P2;Temp;Humidity;BMP_temperature;BMP_pressure;BME280_temperature;BME280_humidity;BME280_pressure;Samples;Min_cycle;Max_cycle;Signal;HPM_P1;HPM_P2
2022/10/23 00:00:33;;;;;;;15.52;5.38;;;12.80;99.90;;;;;;5032218;28;20053;-71
2022/10/23 00:02:59;;;;;;;10.50;5.47;;;12.80;99.90;;;;;;5031491;28;20118;-71
2022/10/23 00:05:25;;;;;;;10.23;5.20;;;12.80;99.90;;;;;;5008152;28;20049;-71
2022/10/23 00:07:52;;;;;;;14.13;5.72;;;12.80;99.90;;;;;;5070762;28;20052;-71
2022/10/23 00:10:18;;;;;;;12.63;5.05;;;12.80;99.90;;;;;;5040306;28;20781;-71
2022/10/23 00:12:44;;;;;;;13.80;5.00;;;12.80;99.90;;;;;;4999361;28;20049;-71
2022/10/23 00:15:10;;;;;;;8.95;4.93;;;12.80;99.90;;;;;;5047499;28;20063;-71
2022/10/23 00:17:37;;;;;;;13.63;5.68;;;12.80;99.90;;;;;;5047271;28;20052;-71
2022/10/23 00:20:04;;;;;;;7.57;4.35;;;12.80;99.90;;;;;;5045277;28;20045;-71
2022/10/23 00:22:31;;;;;;;12.18;5.13;;;12.80;99.90;;;;;;5006527;28;20143;-71
2022/10/23 00:24:58;;;;;;;10.48;5.40;;;12.80;99.90;;;;;;5021428;28;20087;-71
2022/10/23 00:27:24;;;;;;;14.20;4.93;;;12.70;99.90;;;;;;5036803;28;20067;-70
2022/10/23 00:29:49;;;;;;;10.82;4.93;;;12.70;99.90;;;;;;5039054;28;20457;-70
2022/10/23 00:32:15;;;;;;;10.15;5.28;;;12.70;99.90;;;;;;5045668;28;20049;-70
2022/10/23 00:34:41;;;;;;;9.82;4.65;;;12.70;99.90;;;;;;5009938;28;20045;-70
2022/10/23 00:37:07;;;;;;;13.35;6.28;;;12.70;99.90;;;;;;5011304;28;20068;-70
2022/10/23 00:39:33;;;;;;;13.07;5.10;;;12.60;99.90;;;;;;4989214;28;21715;-70
2022/10/23 00:41:58;;;;;;;11.57;5.22;;;12.70;99.90;;;;;;5027429;28;20471;-71
2022/10/23 00:44:24;;;;;;;12.13;5.47;;;12.60;99.90;;;;;;5028336;28;20099;-71
2022/10/23 00:46:50;;;;;;;12.90;5.47;;;12.70;99.90;;;;;;5033405;28;20037;-71
2022/10/23 00:49:16;;;;;;;11.23;5.00;;;12.60;99.90;;;;;;5020383;28;20064;-71
2022/10/23 00:51:43;;;;;;;11.73;5.28;;;12.60;99.90;;;;;;5027423;28;20124;-71
2022/10/23 00:54:09;;;;;;;14.32;5.15;;;12.50;99.90;;;;;;5044553;28;20045;-72
2022/10/23 00:56:35;;;;;;;9.30;5.15;;;12.50;99.90;;;;;;5026968;28;20049;-71
2022/10/23 00:59:01;;;;;;;12.27;5.38;;;12.50;99.90;;;;;;5027846;28;20634;-70
2022/10/23 01:01:27;;;;;;;9.18;5.03;;;12.50;99.90;;;;;;5038657;28;20057;-70
2022/10/23 01:03:54;;;;;;;13.27;5.53;;;12.40;99.90;;;;;;5021440;28;20258;-70
2022/10/23 01:06:32;;;;;;;13.65;5.70;;;12.40;99.90;;;;;;4992761;28;20041;-70
2022/10/23 01:09:07;;;;;;;15.00;5.32;;;12.40;99.90;;;;;;5038750;28;20068;-70
2022/10/23 01:12:02;;;;;;;11.98;4.63;;;12.40;99.90;;;;;;5037388;28;20212;-70
2022/10/23 01:14:49;;;;;;;12.13;4.88;;;12.40;99.90;;;;;;5026640;28;20037;-71
2022/10/23 01:17:30;;;;;;;11.33;4.80;;;12.40;99.90;;;;;;5020087;28;20099;-70
2022/10/23 01:20:04;;;;;;;10.65;5.07;;;12.40;99.90;;;;;;5023808;28;20783;-71
2022/10/23 01:23:02;;;;;;;11.18;5.40;;;12.40;99.90;;;;;;5024732;28;20124;-70
2022/10/23 01:26:05;;;;;;;9.00;4.63;;;12.50;99.90;;;;;;5028461;28;20041;-71
2022/10/23 01:28:35;;;;;;;20.00;5.10;;;12.50;99.90;;;;;;5044885;28;20052;-71
2022/10/23 01:31:01;;;;;;;8.65;4.95;;;12.50;99.90;;;;;;5044555;28;20036;-71
2022/10/23 01:33:33;;;;;;;9.25;5.28;;;12.50;99.90;;;;;;5010698;28;20051;-73
2022/10/23 01:36:03;;;;;;;11.65;5.50;;;12.40;99.90;;;;;;5044335;28;20521;-71
2022/10/23 01:38:40;;;;;;;11.02;5.32;;;12.40;99.90;;;;;;5027494;28;20072;-71
2022/10/23 01:41:18;;;;;;;8.13;5.03;;;12.40;99.90;;;;;;5042340;28;20041;-71
2022/10/23 01:43:50;;;;;;;12.95;5.43;;;12.50;99.90;;;;;;5003092;28;20037;-71
2022/10/23 01:46:16;;;;;;;9.52;5.10;;;12.50;99.90;;;;;;5041052;28;20044;-71
2022/10/23 01:48:45;;;;;;;11.57;5.18;;;12.60;99.90;;;;;;5027393;28;20048;-71
2022/10/23 01:51:12;;;;;;;11.40;4.68;;;12.60;99.90;;;;;;5010896;28;20049;-70
2022/10/23 01:53:40;;;;;;;12.43;5.13;;;12.60;99.90;;;;;;5044528;28;20049;-71
2022/10/23 01:56:10;;;;;;;15.68;5.50;;;12.60;99.90;;;;;;5008890;28;20576;-71
2022/10/23 01:58:36;;;;;;;10.40;5.10;;;12.70;99.90;;;;;;5011322;28;20048;-71
2022/10/23 02:01:03;;;;;;;13.00;5.38;;;12.60;99.90;;;;;;5026648;28;20950;-71
2022/10/23 02:03:29;;;;;;;11.75;5.03;;;12.60;99.90;;;;;;5010677;28;20059;-71
2022/10/23 02:05:55;;;;;;;12.35;5.05;;;12.60;99.90;;;;;;5009778;28;20186;-71
2022/10/23 02:08:21;;;;;;;16.85;5.13;;;12.50;99.90;;;;;;5019661;28;20135;-71
2022/10/23 02:10:52;;;;;;;10.18;5.07;;;12.60;99.90;;;;;;5010115;28;20076;-71
2022/10/23 02:13:43;;;;;;;13.70;4.78;;;12.60;99.90;;;;;;5042890;28;20602;-71
2022/10/23 02:16:23;;;;;;;10.73;5.55;;;12.50;99.90;;;;;;5027175;28;20091;-71
2022/10/23 02:19:20;;;;;;;12.57;5.13;;;12.60;99.90;;;;;;5024631;28;20466;-71
2022/10/23 02:21:55;;;;;;;12.23;5.20;;;12.60;99.90;;;;;;5033256;28;20103;-71
2022/10/23 02:24:54;;;;;;;10.65;5.30;;;12.60;99.90;;;;;;5043698;28;20114;-71
2022/10/23 02:27:29;;;;;;;7.90;5.07;;;12.50;99.90;;;;;;5026501;28;20044;-71
2022/10/23 02:30:00;;;;;;;16.38;5.22;;;12.50;99.90;;;;;;5007762;28;20041;-71
2022/10/23 02:32:26;;;;;;;7.97;4.78;;;12.50;99.90;;;;;;5025729;28;20041;-71
2022/10/23 02:34:53;;;;;;;11.18;5.25;;;12.50;99.90;;;;;;5040008;28;20048;-71
2022/10/23 02:37:18;;;;;;;12.23;5.35;;;12.50;99.90;;;;;;5023271;28;20057;-71
2022/10/23 02:39:44;;;;;;;10.80;4.93;;;12.50;99.90;;;;;;5040888;28;20041;-71
2022/10/23 02:42:33;;;;;;;8.32;4.88;;;12.50;99.90;;;;;;5017184;28;20048;-71
2022/10/23 02:45:21;;;;;;;8.90;4.85;;;12.50;99.90;;;;;;5043492;28;20053;-71
2022/10/23 02:47:56;;;;;;;9.10;5.22;;;12.40;99.90;;;;;;5041230;28;20120;-71
2022/10/23 02:51:00;;;;;;;9.75;5.40;;;12.40;99.90;;;;;;5043509;28;20051;-71
2022/10/23 02:53:28;;;;;;;10.25;5.35;;;12.40;99.90;;;;;;5026599;28;20561;-70
2022/10/23 02:56:02;;;;;;;11.20;5.35;;;12.40;99.90;;;;;;5047163;28;20037;-70
2022/10/23 02:58:46;;;;;;;11.10;4.97;;;12.40;99.90;;;;;;5007743;28;20049;-70
2022/10/23 03:01:18;;;;;;;12.65;5.32;;;12.40;99.90;;;;;;5030897;28;20052;-70
2022/10/23 03:03:58;;;;;;;13.80;5.68;;;12.40;99.90;;;;;;5018766;28;20045;-70
2022/10/23 03:06:24;;;;;;;9.93;5.07;;;12.40;99.90;;;;;;5030030;28;20060;-70
2022/10/23 03:08:54;;;;;;;10.98;5.30;;;12.30;99.90;;;;;;5034829;28;20239;-71
2022/10/23 03:11:21;;;;;;;8.07;4.90;;;12.30;99.90;;;;;;5017267;28;20045;-70
2022/10/23 03:13:47;;;;;;;16.25;6.00;;;12.30;99.90;;;;;;5021878;28;20501;-71
2022/10/23 03:16:13;;;;;;;11.35;5.32;;;12.30;99.90;;;;;;5022636;28;20045;-70
2022/10/23 03:18:39;;;;;;;12.52;5.22;;;12.30;99.90;;;;;;5030653;28;20060;-71
2022/10/23 03:21:04;;;;;;;13.52;5.38;;;12.30;99.90;;;;;;5038924;28;20076;-70
2022/10/23 03:23:30;;;;;;;9.95;5.28;;;12.20;99.90;;;;;;5034065;28;20056;-70
2022/10/23 03:25:56;;;;;;;14.35;5.15;;;12.20;99.90;;;;;;5004958;28;20064;-70
2022/10/23 03:28:22;;;;;;;11.02;5.43;;;12.20;99.90;;;;;;5008264;28;20119;-71
2022/10/23 03:30:49;;;;;;;14.05;5.15;;;12.10;99.90;;;;;;5044022;28;20059;-70
2022/10/23 03:33:14;;;;;;;9.98;5.25;;;12.10;99.90;;;;;;5047337;28;20124;-70
2022/10/23 03:35:40;;;;;;;13.10;5.35;;;12.10;99.90;;;;;;5038306;28;20057;-70
2022/10/23 03:38:08;;;;;;;9.02;5.15;;;12.10;99.90;;;;;;5029699;28;20742;-71
2022/10/23 03:40:34;;;;;;;8.63;4.80;;;12.10;99.90;;;;;;5004894;28;20127;-70
2022/10/23 03:42:59;;;;;;;13.07;5.30;;;12.10;99.90;;;;;;5024742;28;20132;-71
2022/10/23 03:45:25;;;;;;;11.85;5.22;;;12.10;99.90;;;;;;5028872;28;20078;-70
2022/10/23 03:47:51;;;;;;;9.60;4.80;;;12.10;99.90;;;;;;5029113;28;20476;-70
2022/10/23 03:50:18;;;;;;;14.32;5.35;;;12.10;99.90;;;;;;5028431;28;20041;-70
2022/10/23 03:52:43;;;;;;;8.23;4.43;;;12.10;99.90;;;;;;5044847;28;20877;-71
2022/10/23 03:55:09;;;;;;;13.65;5.40;;;12.10;99.90;;;;;;5012862;28;20493;-70
2022/10/23 03:57:35;;;;;;;10.18;5.05;;;12.10;99.90;;;;;;5027653;28;20072;-70
2022/10/23 04:00:03;;;;;;;9.05;5.03;;;12.10;99.90;;;;;;5045485;28;20041;-70
2022/10/23 04:02:29;;;;;;;10.88;4.97;;;12.10;99.90;;;;;;5028065;28;20041;-70
2022/10/23 04:04:55;;;;;;;9.10;4.05;;;12.00;99.90;;;;;;5015259;28;20083;-70
2022/10/23 04:07:20;;;;;;;9.13;3.92;;;12.00;99.90;;;;;;5029789;28;20086;-70
2022/10/23 04:09:46;;;;;;;16.45;4.68;;;11.90;99.90;;;;;;5038593;28;20098;-71
2022/10/23 04:12:12;;;;;;;12.75;4.95;;;11.90;99.90;;;;;;5055538;28;20550;-70
2022/10/23 04:14:38;;;;;;;8.10;4.00;;;11.80;99.90;;;;;;5028939;28;20140;-70
2022/10/23 04:17:04;;;;;;;8.73;4.75;;;11.80;99.90;;;;;;5026119;28;20056;-71
2022/10/23 04:19:30;;;;;;;11.45;4.25;;;11.80;99.90;;;;;;4993107;28;20041;-70
2022/10/23 04:21:56;;;;;;;11.23;4.30;;;11.80;99.90;;;;;;5042186;28;20048;-70
2022/10/23 04:24:22;;;;;;;9.38;4.18;;;11.80;99.90;;;;;;5028299;28;20688;-70
2022/10/23 04:26:50;;;;;;;9.63;3.67;;;11.80;99.90;;;;;;5006261;28;20048;-71
2022/10/23 04:29:15;;;;;;;12.50;4.03;;;11.70;99.90;;;;;;5006375;28;20048;-71
2022/10/23 04:31:42;;;;;;;5.97;3.35;;;11.70;99.90;;;;;;5046887;28;20044;-71
2022/10/23 04:34:07;;;;;;;8.00;3.65;;;11.70;99.90;;;;;;5044818;28;20052;-71
2022/10/23 04:36:33;;;;;;;10.55;4.32;;;11.60;99.90;;;;;;5009579;28;20490;-71
2022/10/23 04:38:59;;;;;;;9.48;4.13;;;11.60;99.90;;;;;;5057772;28;20045;-72
2022/10/23 04:41:25;;;;;;;9.57;4.32;;;11.60;99.90;;;;;;5022611;28;20048;-71
2022/10/23 04:43:51;;;;;;;5.68;3.45;;;11.60;99.90;;;;;;5041909;28;20048;-71
2022/10/23 04:46:16;;;;;;;7.97;3.78;;;11.60;99.90;;;;;;5041042;28;20044;-70
2022/10/23 04:48:42;;;;;;;9.35;4.47;;;11.60;99.90;;;;;;5025600;28;20048;-70
2022/10/23 04:51:08;;;;;;;10.40;4.82;;;11.60;99.90;;;;;;5039206;28;20048;-71
2022/10/23 04:53:34;;;;;;;8.30;3.85;;;11.60;99.90;;;;;;5012066;28;20398;-71
2022/10/23 04:56:00;;;;;;;11.48;4.00;;;11.50;99.90;;;;;;5027790;28;20055;-71
2022/10/23 04:58:26;;;;;;;10.48;4.55;;;11.50;99.90;;;;;;5021937;28;20058;-70
2022/10/23 05:00:52;;;;;;;6.05;3.40;;;11.40;99.90;;;;;;5028217;28;20101;-70
2022/10/23 05:03:18;;;;;;;8.30;3.67;;;11.40;99.90;;;;;;5024399;28;20049;-71
2022/10/23 05:05:44;;;;;;;10.02;3.58;;;11.40;99.90;;;;;;5006402;28;20059;-71
2022/10/23 05:08:10;;;;;;;12.15;3.70;;;11.30;99.90;;;;;;5038647;28;20140;-71
2022/10/23 05:10:36;;;;;;;10.35;3.95;;;11.40;99.90;;;;;;5022573;28;20132;-70
2022/10/23 05:13:02;;;;;;;7.90;3.50;;;11.30;99.90;;;;;;5023768;28;20045;-71
2022/10/23 05:15:28;;;;;;;9.73;3.60;;;11.30;99.90;;;;;;5025379;28;20048;-71
2022/10/23 05:18:04;;;;;;;11.68;3.95;;;11.30;99.90;;;;;;5042922;28;20040;-71
2022/10/23 05:20:31;;;;;;;7.65;3.55;;;11.20;99.90;;;;;;5011227;28;20045;-70
2022/10/23 05:22:57;;;;;;;7.53;3.33;;;11.20;99.90;;;;;;5008047;28;20037;-71
2022/10/23 05:25:23;;;;;;;9.10;3.63;;;11.20;99.90;;;;;;5034006;28;20674;-71
2022/10/23 05:27:48;;;;;;;8.85;3.58;;;11.20;99.90;;;;;;5044022;28;20045;-71
2022/10/23 05:30:14;;;;;;;9.55;3.40;;;11.20;99.90;;;;;;5027081;28;20041;-70
2022/10/23 05:32:40;;;;;;;7.93;3.38;;;11.20;99.90;;;;;;5025643;28;20155;-71
2022/10/23 05:35:08;;;;;;;8.63;3.60;;;11.10;99.90;;;;;;5010574;28;20067;-70
2022/10/23 05:37:37;;;;;;;8.55;3.83;;;11.10;99.90;;;;;;5026082;28;20459;-71
2022/10/23 05:40:03;;;;;;;10.88;3.53;;;11.10;99.90;;;;;;5061379;28;20075;-71
2022/10/23 05:42:29;;;;;;;7.10;4.00;;;11.10;99.90;;;;;;5024322;28;20786;-70
2022/10/23 05:44:55;;;;;;;11.40;3.35;;;11.00;99.90;;;;;;5063051;28;20144;-71
2022/10/23 05:47:21;;;;;;;13.73;3.92;;;11.10;99.90;;;;;;5003987;28;20045;-70
2022/10/23 05:49:47;;;;;;;12.13;3.58;;;10.90;99.90;;;;;;5038410;28;20747;-70
2022/10/23 05:52:13;;;;;;;8.68;3.13;;;11.00;99.90;;;;;;5046592;28;20118;-70
2022/10/23 05:54:39;;;;;;;7.05;3.28;;;11.00;99.90;;;;;;5047096;28;20048;-71
2022/10/23 05:57:05;;;;;;;7.75;3.50;;;11.00;99.90;;;;;;5047331;28;20051;-71
2022/10/23 05:59:32;;;;;;;6.97;2.95;;;11.00;99.90;;;;;;5023886;28;20056;-71
2022/10/23 06:01:58;;;;;;;7.57;3.08;;;10.90;99.90;;;;;;5029093;28;20041;-71
2022/10/23 06:04:24;;;;;;;5.57;3.00;;;10.90;99.90;;;;;;5030549;28;20052;-71
2022/10/23 06:06:50;;;;;;;9.05;3.38;;;10.90;99.90;;;;;;5026861;28;20457;-71
2022/10/23 06:09:15;;;;;;;7.65;2.88;;;10.90;99.90;;;;;;5011338;28;20050;-70
2022/10/23 06:11:41;;;;;;;8.52;3.40;;;10.90;99.90;;;;;;5009341;28;20132;-70
2022/10/23 06:14:07;;;;;;;8.18;3.47;;;10.90;99.90;;;;;;5029989;28;20049;-68
2022/10/23 06:16:33;;;;;;;6.28;2.90;;;11.00;99.90;;;;;;5017483;28;20602;-71
2022/10/23 06:18:59;;;;;;;5.75;3.38;;;11.00;99.90;;;;;;5030511;28;20045;-70
2022/10/23 06:21:25;;;;;;;5.43;2.83;;;11.00;99.90;;;;;;5030338;28;20041;-71
2022/10/23 06:23:51;;;;;;;8.07;3.30;;;11.00;99.90;;;;;;5027559;28;20083;-71
2022/10/23 06:26:17;;;;;;;9.13;3.00;;;11.00;99.90;;;;;;5030811;28;20041;-70
2022/10/23 06:28:43;;;;;;;9.60;3.10;;;11.00;99.90;;;;;;5033466;28;20051;-71
2022/10/23 06:31:11;;;;;;;6.47;3.40;;;11.00;99.90;;;;;;5014849;28;20053;-71
2022/10/23 06:33:36;;;;;;;12.93;3.20;;;11.00;99.90;;;;;;5014519;28;20083;-70
2022/10/23 06:36:04;;;;;;;7.43;3.13;;;11.00;99.90;;;;;;5065574;28;20382;-71
2022/10/23 06:38:35;;;;;;;5.00;3.10;;;11.00;99.90;;;;;;5050915;28;20541;-71
2022/10/23 06:41:01;;;;;;;8.13;3.15;;;11.00;99.90;;;;;;5034342;28;20125;-71
2022/10/23 06:43:27;;;;;;;7.38;3.80;;;11.00;99.90;;;;;;5033728;28;20048;-71
2022/10/23 06:45:52;;;;;;;11.50;3.95;;;11.00;99.90;;;;;;5027347;28;20053;-71
2022/10/23 06:48:18;;;;;;;8.70;4.43;;;11.00;99.90;;;;;;5014384;28;20049;-71
2022/10/23 06:50:44;;;;;;;7.85;3.70;;;11.00;99.90;;;;;;4998739;28;20053;-70
2022/10/23 06:53:11;;;;;;;8.52;3.90;;;11.10;99.90;;;;;;5048283;28;20078;-71
2022/10/23 06:55:38;;;;;;;7.50;3.72;;;11.10;99.90;;;;;;5049167;28;20057;-71
2022/10/23 06:58:09;;;;;;;7.32;3.08;;;11.20;99.90;;;;;;5017469;28;20565;-70
2022/10/23 07:00:38;;;;;;;5.65;2.75;;;11.20;99.90;;;;;;5043278;28;20525;-71
2022/10/23 07:03:04;;;;;;;10.65;3.50;;;11.00;99.90;;;;;;5031880;28;20076;-71
2022/10/23 07:05:31;;;;;;;9.10;3.13;;;11.00;99.90;;;;;;5015430;28;20429;-70
2022/10/23 07:07:56;;;;;;;6.15;3.00;;;11.10;99.90;;;;;;5049159;28;20060;-71
2022/10/23 07:10:22;;;;;;;6.20;2.80;;;11.20;99.90;;;;;;5042941;28;20044;-70
2022/10/23 07:12:48;;;;;;;7.28;2.95;;;11.20;99.90;;;;;;5049097;28;20053;-70
2022/10/23 07:15:15;;;;;;;5.00;3.20;;;11.30;99.90;;;;;;5043309;28;20540;-71
2022/10/23 07:17:41;;;;;;;6.25;2.92;;;11.30;99.90;;;;;;5032917;28;20060;-71
2022/10/23 07:20:08;;;;;;;5.10;2.85;;;11.30;99.90;;;;;;5049867;28;20048;-71
2022/10/23 07:22:34;;;;;;;5.38;3.10;;;11.40;99.90;;;;;;5059075;28;20045;-71
2022/10/23 07:25:00;;;;;;;14.68;4.07;;;11.40;99.90;;;;;;5006479;28;20053;-71
2022/10/23 07:27:25;;;;;;;6.90;3.33;;;11.40;99.90;;;;;;5048628;28;20041;-71
2022/10/23 07:29:51;;;;;;;8.68;3.70;;;11.40;99.90;;;;;;5045227;28;20040;-71
2022/10/23 07:32:17;;;;;;;4.15;3.03;;;11.50;99.90;;;;;;5058240;28;20041;-71
2022/10/23 07:34:43;;;;;;;6.35;3.13;;;11.50;99.90;;;;;;5049707;28;20351;-71
2022/10/23 07:37:09;;;;;;;8.52;3.85;;;11.60;99.90;;;;;;5049271;28;20068;-71
2022/10/23 07:39:34;;;;;;;13.07;4.38;;;11.60;99.90;;;;;;5016652;28;20045;-71
2022/10/23 07:42:00;;;;;;;7.25;3.45;;;11.70;99.90;;;;;;5032876;28;20041;-71
2022/10/23 07:44:26;;;;;;;6.60;3.45;;;11.70;99.90;;;;;;5022845;28;20041;-71
2022/10/23 07:46:52;;;;;;;10.60;3.38;;;11.70;99.90;;;;;;5031602;28;20818;-71
2022/10/23 07:49:17;;;;;;;8.02;3.28;;;11.80;99.90;;;;;;5049068;28;20053;-71
2022/10/23 07:51:43;;;;;;;11.38;3.63;;;11.80;99.90;;;;;;5026251;28;20138;-71
2022/10/23 07:54:12;;;;;;;6.43;2.95;;;11.80;99.90;;;;;;5047426;28;20425;-71
2022/10/23 07:56:38;;;;;;;7.60;3.22;;;11.80;99.90;;;;;;5025487;28;20111;-71
2022/10/23 07:59:04;;;;;;;6.82;2.97;;;11.90;99.90;;;;;;5047534;28;20541;-71
2022/10/23 08:01:30;;;;;;;7.68;3.50;;;11.90;99.90;;;;;;5037129;28;20041;-71
2022/10/23 08:03:56;;;;;;;7.22;3.72;;;12.00;99.90;;;;;;5027326;28;20037;-71
2022/10/23 08:06:22;;;;;;;7.63;3.58;;;12.00;99.90;;;;;;5025949;28;20120;-71
2022/10/23 08:08:48;;;;;;;12.05;4.43;;;12.10;99.90;;;;;;5031930;28;20053;-71
2022/10/23 08:11:14;;;;;;;11.00;4.53;;;12.10;99.90;;;;;;5044163;28;20098;-71
2022/10/23 08:13:40;;;;;;;7.22;3.88;;;12.10;99.90;;;;;;5048459;28;20045;-70
2022/10/23 08:16:06;;;;;;;7.00;3.85;;;12.20;99.90;;;;;;5012262;28;20048;-71
2022/10/23 08:18:32;;;;;;;10.27;3.72;;;12.20;99.90;;;;;;4999942;28;20127;-70
2022/10/23 08:21:01;;;;;;;6.65;3.50;;;12.30;99.90;;;;;;5047891;28;20132;-71
2022/10/23 08:33:34;;;;;;;11.50;3.58;;;12.50;99.90;;;;;;5038967;28;20057;-72
2022/10/23 08:36:00;;;;;;;9.80;3.78;;;12.60;99.90;;;;;;5010783;28;20394;-72
2022/10/23 08:38:25;;;;;;;6.53;3.55;;;12.70;99.90;;;;;;5025216;28;20059;-71
2022/10/23 08:40:52;;;;;;;8.95;3.60;;;12.70;99.90;;;;;;5034339;28;20044;-71
2022/10/23 08:43:29;;;;;;;10.25;3.80;;;12.80;99.90;;;;;;5045744;28;20098;-71
2022/10/23 08:45:57;;;;;;;7.68;3.38;;;12.90;99.90;;;;;;5035358;28;20474;-71
2022/10/23 08:48:51;;;;;;;7.32;3.17;;;12.90;99.90;;;;;;5046638;28;20037;-72
2022/10/23 08:51:34;;;;;;;7.35;2.55;;;13.00;99.90;;;;;;5031120;28;20053;-72
2022/10/23 08:54:26;;;;;;;9.60;3.20;;;13.10;99.90;;;;;;5046630;28;20045;-72
2022/10/23 08:56:58;;;;;;;6.72;2.88;;;13.20;99.90;;;;;;5029182;28;20045;-72
2022/10/23 08:59:33;;;;;;;8.52;2.63;;;13.30;99.90;;;;;;5042176;28;20148;-72
2022/10/23 09:02:10;;;;;;;6.05;3.00;;;13.40;99.90;;;;;;5047256;28;20072;-71
2022/10/23 09:04:36;;;;;;;8.07;2.80;;;13.40;99.90;;;;;;5027770;28;20041;-71
2022/10/23 09:07:28;;;;;;;7.53;2.67;;;13.50;99.90;;;;;;5028463;28;20544;-71
2022/10/23 09:10:00;;;;;;;12.45;3.00;;;13.60;99.90;;;;;;5043315;28;20044;-72
2022/10/23 09:12:26;;;;;;;8.38;2.50;;;13.70;99.90;;;;;;5044686;28;20186;-71
2022/10/23 09:15:22;;;;;;;6.60;2.33;;;13.80;99.90;;;;;;5043500;28;20064;-72
2022/10/23 09:17:48;;;;;;;7.40;2.58;;;13.80;99.90;;;;;;5043515;28;20099;-72
2022/10/23 09:20:22;;;;;;;7.28;2.22;;;13.90;99.90;;;;;;5044490;28;20045;-72
2022/10/23 09:22:49;;;;;;;9.30;2.50;;;14.00;99.90;;;;;;5048878;28;20049;-76
2022/10/23 09:25:26;;;;;;;9.25;2.70;;;14.10;99.90;;;;;;5023961;28;20049;-73
2022/10/23 09:27:54;;;;;;;7.30;2.60;;;14.20;99.90;;;;;;5026117;28;20622;-72
2022/10/23 09:30:35;;;;;;;10.70;2.50;;;14.20;99.90;;;;;;5030729;28;20557;-72
2022/10/23 09:33:21;;;;;;;9.48;2.50;;;14.30;99.90;;;;;;5029366;28;20091;-73
2022/10/23 09:35:58;;;;;;;8.85;2.20;;;14.40;99.90;;;;;;5011006;28;20045;-72
2022/10/23 09:38:37;;;;;;;6.57;3.10;;;14.50;99.90;;;;;;5036112;28;20037;-73
2022/10/23 09:41:18;;;;;;;5.75;3.10;;;14.60;99.90;;;;;;5009819;28;20106;-72
2022/10/23 09:43:44;;;;;;;10.10;2.60;;;14.80;99.90;;;;;;5031298;28;20332;-73
2022/10/23 09:46:10;;;;;;;6.57;2.70;;;14.90;99.90;;;;;;5024187;28;20972;-74
2022/10/23 09:48:37;;;;;;;5.95;2.45;;;15.00;99.90;;;;;;5031103;28;20063;-74
2022/10/23 09:51:23;;;;;;;7.15;2.60;;;15.10;99.90;;;;;;5013483;28;20045;-73
2022/10/23 09:53:54;;;;;;;10.30;2.58;;;15.20;99.90;;;;;;5030324;28;20053;-73
2022/10/23 09:56:26;;;;;;;9.98;2.40;;;15.30;99.90;;;;;;5006430;28;20095;-74
2022/10/23 09:58:59;;;;;;;7.53;2.25;;;15.40;99.90;;;;;;5045491;28;20057;-73
2022/10/23 10:01:31;;;;;;;6.47;2.25;;;15.50;99.90;;;;;;5006714;28;20053;-73
2022/10/23 10:03:57;;;;;;;7.18;2.45;;;15.60;99.90;;;;;;4995755;28;20530;-74
2022/10/23 10:06:25;;;;;;;5.80;2.40;;;15.70;99.90;;;;;;5015898;28;20463;-73
2022/10/23 10:08:53;;;;;;;5.47;2.28;;;15.70;99.90;;;;;;5050182;28;20055;-73
2022/10/23 10:11:27;;;;;;;7.03;2.58;;;15.80;99.90;;;;;;5021247;28;20502;-74
2022/10/23 10:14:05;;;;;;;9.32;2.45;;;15.80;99.90;;;;;;5029837;28;20049;-73
2022/10/23 10:16:39;;;;;;;6.10;1.98;;;15.90;99.90;;;;;;5035337;28;20131;-73
2022/10/23 10:19:29;;;;;;;5.97;2.42;;;15.90;99.90;;;;;;5051887;28;20084;-73
2022/10/23 10:22:20;;;;;;;7.13;1.88;;;15.90;99.90;;;;;;5045629;28;20114;-73
2022/10/23 10:24:55;;;;;;;7.18;2.25;;;16.00;99.90;;;;;;5052450;28;20110;-73
2022/10/23 10:27:51;;;;;;;6.10;1.92;;;16.10;99.90;;;;;;5034995;28;20037;-73
2022/10/23 10:30:24;;;;;;;6.35;2.17;;;16.20;99.90;;;;;;5049879;28;20056;-73
2022/10/23 10:33:13;;;;;;;8.57;2.20;;;16.30;99.90;;;;;;5051026;28;20052;-73
2022/10/23 10:35:39;;;;;;;5.68;2.13;;;16.30;99.90;;;;;;5031414;28;20049;-71
2022/10/23 10:38:25;;;;;;;3.97;1.88;;;16.40;99.90;;;;;;5051992;28;20036;-71
2022/10/23 10:41:15;;;;;;;4.70;1.75;;;16.40;99.90;;;;;;5034756;28;20355;-72
2022/10/23 10:44:20;;;;;;;7.20;2.35;;;16.40;99.90;;;;;;5049403;28;20099;-72
2022/10/23 10:46:52;;;;;;;5.05;1.75;;;16.40;99.90;;;;;;5040062;28;20041;-73
2022/10/23 10:49:37;;;;;;;10.23;2.08;;;16.40;99.90;;;;;;5033614;28;20064;-72
2022/10/23 10:52:22;;;;;;;7.05;1.77;;;16.40;99.90;;;;;;5030143;28;20495;-73
2022/10/23 10:54:51;;;;;;;8.38;1.98;;;16.30;99.90;;;;;;4997599;28;20463;-73
2022/10/23 10:57:29;;;;;;;7.35;2.50;;;16.30;99.90;;;;;;5017082;28;20045;-73
2022/10/23 10:59:58;;;;;;;4.32;1.95;;;16.40;99.90;;;;;;5049998;28;20053;-73
2022/10/23 11:02:42;;;;;;;7.28;1.98;;;16.50;99.90;;;;;;5018758;28;20133;-73
2022/10/23 11:05:29;;;;;;;4.85;1.98;;;16.70;99.90;;;;;;5004958;28;20443;-74
2022/10/23 11:08:14;;;;;;;5.93;1.90;;;16.90;99.90;;;;;;5048330;28;20478;-73
2022/10/23 11:10:48;;;;;;;7.35;2.28;;;16.90;99.90;;;;;;5045059;28;20053;-73
2022/10/23 11:13:34;;;;;;;5.28;1.77;;;16.90;99.90;;;;;;5033994;28;20482;-73
2022/10/23 11:16:03;;;;;;;3.05;1.35;;;16.90;99.90;;;;;;5017157;28;20079;-73
2022/10/23 11:18:29;;;;;;;4.45;1.73;;;17.00;99.90;;;;;;5062521;28;20086;-73
2022/10/23 11:20:58;;;;;;;10.80;2.25;;;17.00;99.90;;;;;;5032778;28;20124;-73
2022/10/23 11:23:51;;;;;;;7.72;1.92;;;17.00;99.90;;;;;;5050069;28;20067;-73
2022/10/23 11:26:36;;;;;;;6.95;1.60;;;17.10;99.90;;;;;;5048689;28;20044;-73
2022/10/23 11:29:23;;;;;;;5.35;1.38;;;17.10;99.90;;;;;;5039913;28;20087;-73
2022/10/23 11:32:01;;;;;;;7.20;1.40;;;17.10;99.90;;;;;;5038296;28;20065;-73
2022/10/23 11:34:42;;;;;;;4.32;1.40;;;17.20;99.90;;;;;;5042248;28;20059;-73
2022/10/23 11:37:08;;;;;;;4.50;1.48;;;17.20;99.90;;;;;;5031084;28;20081;-73
2022/10/23 11:39:35;;;;;;;4.00;1.40;;;17.20;99.90;;;;;;5023615;28;20461;-73
2022/10/23 11:42:04;;;;;;;5.35;1.30;;;17.30;99.90;;;;;;5038047;28;20068;-73
2022/10/23 11:44:39;;;;;;;4.88;1.30;;;17.50;99.90;;;;;;5050099;28;20084;-74
2022/10/23 11:47:28;;;;;;;6.05;1.30;;;17.80;99.90;;;;;;5049478;28;20053;-73
2022/10/23 11:50:06;;;;;;;4.72;1.25;;;18.10;99.90;;;;;;5036533;28;20045;-74
2022/10/23 11:52:39;;;;;;;9.25;1.65;;;18.30;99.90;;;;;;5038785;28;20044;-73
2022/10/23 11:55:32;;;;;;;4.00;1.45;;;18.40;99.90;;;;;;5029590;28;20545;-73
2022/10/23 11:58:03;;;;;;;3.45;1.08;;;18.40;99.90;;;;;;5020104;28;20049;-73
2022/10/23 12:00:30;;;;;;;5.10;1.50;;;18.50;99.90;;;;;;5042615;28;20053;-69
2022/10/23 12:02:56;;;;;;;4.43;1.15;;;18.70;99.90;;;;;;5008767;28;20076;-70
2022/10/23 12:05:37;;;;;;;5.65;1.40;;;19.20;99.90;;;;;;5010927;28;20130;-70
2022/10/23 12:08:05;;;;;;;6.57;1.38;;;19.70;99.90;;;;;;5009323;28;20690;-70
2022/10/23 12:10:33;;;;;;;7.93;1.42;;;20.20;99.90;;;;;;5044751;28;20051;-70
2022/10/23 12:13:00;;;;;;;4.53;1.20;;;20.00;99.90;;;;;;5038721;28;20140;-70
2022/10/23 12:15:26;;;;;;;3.95;1.30;;;20.10;99.90;;;;;;5039269;28;20796;-69
2022/10/23 12:17:53;;;;;;;4.93;1.30;;;20.00;99.90;;;;;;5043952;28;20056;-69
2022/10/23 12:20:30;;;;;;;7.13;1.40;;;19.90;99.90;;;;;;5042999;28;20041;-70
2022/10/23 12:22:59;;;;;;;5.93;1.30;;;19.90;99.90;;;;;;5028280;28;20068;-69
2022/10/23 12:25:43;;;;;;;3.10;1.38;;;19.90;99.90;;;;;;5032329;28;20114;-69
2022/10/23 12:28:27;;;;;;;3.80;1.33;;;20.10;99.90;;;;;;5043042;28;20044;-71
2022/10/23 12:30:59;;;;;;;5.38;1.60;;;20.10;99.90;;;;;;4995928;28;20462;-69
2022/10/23 12:33:35;;;;;;;5.75;1.38;;;20.30;99.90;;;;;;5042229;28;20211;-71
2022/10/23 12:36:07;;;;;;;6.90;1.27;;;20.50;99.90;;;;;;5035272;28;20803;-71
2022/10/23 12:38:37;;;;;;;4.22;1.80;;;20.70;99.70;;;;;;5033063;28;20041;-71
2022/10/23 12:41:14;;;;;;;5.93;1.58;;;20.80;99.90;;;;;;5019565;28;20065;-70
2022/10/23 12:43:41;;;;;;;6.43;1.80;;;20.90;99.90;;;;;;4994715;28;20092;-71
2022/10/23 12:46:13;;;;;;;2.45;1.15;;;20.90;99.90;;;;;;5004079;28;20057;-71
2022/10/23 12:48:49;;;;;;;4.75;1.30;;;21.20;99.80;;;;;;5036739;28;20132;-72
2022/10/23 12:51:35;;;;;;;3.42;0.95;;;21.40;99.00;;;;;;5007710;28;20163;-71
2022/10/23 12:54:01;;;;;;;2.88;1.13;;;21.50;98.10;;;;;;5039473;28;20049;-71
2022/10/23 12:56:32;;;;;;;6.25;1.42;;;21.40;96.70;;;;;;5028247;28;20056;-71
2022/10/23 12:59:00;;;;;;;8.75;1.45;;;21.50;98.00;;;;;;5028784;28;20103;-72
2022/10/23 13:01:26;;;;;;;3.38;1.33;;;21.60;96.40;;;;;;5042457;28;20270;-71
2022/10/23 13:04:15;;;;;;;2.50;1.10;;;21.40;97.30;;;;;;5034031;28;20485;-72
2022/10/23 13:06:40;;;;;;;4.75;1.33;;;21.20;97.10;;;;;;5040930;28;20056;-72
2022/10/23 13:09:09;;;;;;;4.57;1.30;;;20.90;98.20;;;;;;5044549;28;20045;-71
2022/10/23 13:11:36;;;;;;;5.53;1.10;;;20.80;97.70;;;;;;5025766;28;20174;-71